createdAt,value
2024-03-05T00:00:12.064Z,57.30
2024-03-05T00:03:02.893Z,57.72
2024-03-05T00:05:31.438Z,57.54
2024-03-05T00:07:59.551Z,57.29
2024-03-05T00:10:27.701Z,57.64
2024-03-05T00:12:55.977Z,57.32
2024-03-05T00:15:24.003Z,56.68
2024-03-05T00:17:52.062Z,56.42
2024-03-05T00:20:20.532Z,56.43
2024-03-05T00:22:49.446Z,56.38
2024-03-05T00:25:18.219Z,56.43
2024-03-05T00:27:46.361Z,57.93
2024-03-05T00:30:15.504Z,58.02
2024-03-05T00:32:43.872Z,58.77
2024-03-05T00:35:12.108Z,58.31
2024-03-05T00:37:40.571Z,58.02
2024-03-05T00:40:10.020Z,58.12
2024-03-05T00:42:39.087Z,57.80
2024-03-05T00:45:13.264Z,58.12
2024-03-05T00:47:41.611Z,58.32
2024-03-05T00:50:14.238Z,58.02
2024-03-05T00:52:42.582Z,58.09
2024-03-05T00:55:10.707Z,58.62
2024-03-05T00:57:39.074Z,58.20
2024-03-05T01:00:08.082Z,58.34
2024-03-05T01:02:36.662Z,58.42
2024-03-05T01:05:08.412Z,58.47
2024-03-05T01:07:37.764Z,58.32
2024-03-05T01:10:07.008Z,58.48
2024-03-05T01:12:35.294Z,57.91
2024-03-05T01:15:04.337Z,57.74
2024-03-05T01:17:33.642Z,58.01
2024-03-05T01:20:01.817Z,57.77
2024-03-05T01:22:30.006Z,57.86
2024-03-05T01:24:58.211Z,58.12
2024-03-05T01:27:26.453Z,58.24
2024-03-05T01:29:54.508Z,57.90
2024-03-05T01:32:23.117Z,57.74
2024-03-05T01:34:51.306Z,57.78
2024-03-05T01:37:19.498Z,57.80
2024-03-05T01:39:47.548Z,58.51
2024-03-05T01:42:15.664Z,59.02
2024-03-05T01:44:44.024Z,58.79
2024-03-05T01:47:12.473Z,58.67
2024-03-05T01:49:40.627Z,58.51
2024-03-05T01:52:08.627Z,58.51
2024-03-05T01:54:36.606Z,59.01
2024-03-05T01:57:04.780Z,59.11
2024-03-05T01:59:32.915Z,59.19
2024-03-05T02:02:01.070Z,59.06
2024-03-05T02:04:29.189Z,58.80
2024-03-05T02:06:57.436Z,59.02
2024-03-05T02:09:25.640Z,58.86
2024-03-05T02:11:59.172Z,59.04
2024-03-05T02:14:27.994Z,59.36
2024-03-05T02:16:57.457Z,59.08
2024-03-05T02:19:25.627Z,59.07
2024-03-05T02:22:03.632Z,59.93
2024-03-05T02:24:31.967Z,60.17
2024-03-05T02:27:03.611Z,60.32
2024-03-05T02:29:32.514Z,60.28
2024-03-05T02:32:00.650Z,59.85
2024-03-05T02:34:29.132Z,61.28
2024-03-05T02:36:59.008Z,61.30
2024-03-05T02:39:28.473Z,60.98
2024-03-05T02:41:56.662Z,60.62
2024-03-05T02:44:24.750Z,60.06
2024-03-05T02:46:53.129Z,60.77
2024-03-05T02:49:21.302Z,61.79
2024-03-05T02:51:49.453Z,62.58
2024-03-05T02:54:18.185Z,63.74
2024-03-05T02:56:46.486Z,63.30
2024-03-05T02:59:14.523Z,61.82
2024-03-05T03:01:47.506Z,61.98
2024-03-05T03:04:16.597Z,62.96
2024-03-05T03:06:44.862Z,62.31
2024-03-05T03:09:12.977Z,61.89
2024-03-05T03:11:43.149Z,62.25
2024-03-05T03:14:13.079Z,62.16
2024-03-05T03:16:44.648Z,62.15
2024-03-05T03:19:13.509Z,61.72
2024-03-05T03:21:42.348Z,61.39
2024-03-05T03:24:13.467Z,61.00
2024-03-05T03:26:41.542Z,60.74
2024-03-05T03:29:12.511Z,60.68
2024-03-05T03:31:47.117Z,60.47
2024-03-05T03:34:18.517Z,60.24
2024-03-05T03:36:46.763Z,60.11
2024-03-05T03:39:24.862Z,60.73
2024-03-05T03:41:56.791Z,60.93
2024-03-05T03:44:24.858Z,60.51
2024-03-05T03:46:53.266Z,61.30
2024-03-05T03:49:26.145Z,60.82
2024-03-05T03:51:55.227Z,61.00
2024-03-05T03:54:24.152Z,61.20
2024-03-05T03:56:52.796Z,62.04
2024-03-05T03:59:21.465Z,61.85
2024-03-05T04:01:51.145Z,61.72
2024-03-05T04:04:19.432Z,61.41
2024-03-05T04:06:47.590Z,60.95
2024-03-05T04:09:15.792Z,60.84
2024-03-05T04:11:44.013Z,60.60
2024-03-05T04:14:12.366Z,60.97
2024-03-05T04:16:41.277Z,61.57
2024-03-05T04:19:09.830Z,61.31
2024-03-05T04:21:43.833Z,61.64
2024-03-05T04:24:15.121Z,61.31
2024-03-05T04:26:43.754Z,60.94
2024-03-05T04:29:17.874Z,61.98
2024-03-05T04:31:56.364Z,62.59
2024-03-05T04:34:24.785Z,62.38
2024-03-05T04:36:55.621Z,62.79
2024-03-05T04:39:25.242Z,62.93
2024-03-05T04:41:53.506Z,63.04
2024-03-05T04:44:21.852Z,62.97
2024-03-05T04:46:50.208Z,62.33
2024-03-05T04:49:18.557Z,61.85
2024-03-05T04:51:46.734Z,61.57
2024-03-05T04:54:15.630Z,61.59
2024-03-05T04:56:43.817Z,61.47
2024-03-05T04:59:11.961Z,61.87
2024-03-05T05:01:41.075Z,62.14
2024-03-05T05:04:09.279Z,62.11
2024-03-05T05:06:37.296Z,63.77
2024-03-05T05:09:06.802Z,63.75
2024-03-05T05:11:35.261Z,63.09
2024-03-05T05:14:04.188Z,62.87
2024-03-05T05:16:32.776Z,62.71
2024-03-05T05:19:01.011Z,62.80
2024-03-05T05:21:29.114Z,63.21
2024-03-05T05:23:57.204Z,63.19
2024-03-05T05:26:25.307Z,63.13
2024-03-05T05:28:53.738Z,63.68
2024-03-05T05:31:27.967Z,63.20
2024-03-05T05:33:59.003Z,63.34
2024-03-05T05:36:27.103Z,63.27
2024-03-05T05:38:55.271Z,63.55
2024-03-05T05:41:23.273Z,63.46
2024-03-05T05:43:51.603Z,63.49
2024-03-05T05:46:23.053Z,62.86
2024-03-05T05:48:51.277Z,62.31
2024-03-05T05:51:19.812Z,62.75
2024-03-05T05:53:47.882Z,62.20
2024-03-05T05:56:16.915Z,61.78
2024-03-05T05:58:45.674Z,61.69
2024-03-05T06:01:15.316Z,61.30
2024-03-05T06:03:46.418Z,62.05
2024-03-05T06:06:17.924Z,62.46
2024-03-05T06:08:47.298Z,62.14
2024-03-05T06:11:15.643Z,61.95
2024-03-05T06:13:45.015Z,61.57
2024-03-05T06:16:13.823Z,61.95
2024-03-05T06:18:42.505Z,62.58
2024-03-05T06:21:10.578Z,61.96
2024-03-05T06:23:38.813Z,61.58
2024-03-05T06:26:08.622Z,61.99
2024-03-05T06:28:39.259Z,61.63
2024-03-05T06:31:07.552Z,61.24
2024-03-05T06:33:35.638Z,60.91
2024-03-05T06:36:07.755Z,60.63
2024-03-05T06:38:36.065Z,60.64
2024-03-05T06:41:04.470Z,60.16
2024-03-05T06:43:38.709Z,60.11
2024-03-05T06:46:11.002Z,59.85
2024-03-05T06:48:48.479Z,59.83
2024-03-05T06:51:32.837Z,59.45
2024-03-05T06:54:19.922Z,58.86
2024-03-05T06:56:47.949Z,58.33
2024-03-05T06:59:16.079Z,57.70
2024-03-05T07:01:44.768Z,56.37
2024-03-05T07:04:12.866Z,55.70
2024-03-05T07:06:40.959Z,54.84
2024-03-05T07:09:12.833Z,52.39
2024-03-05T07:11:41.364Z,52.30
2024-03-05T07:14:09.472Z,52.12
2024-03-05T07:16:37.753Z,49.83
2024-03-05T07:19:06.003Z,49.82
2024-03-05T07:21:35.019Z,49.99
2024-03-05T07:24:03.694Z,48.41
2024-03-05T07:26:35.802Z,48.12
2024-03-05T07:29:04.213Z,45.78
2024-03-05T07:31:33.033Z,44.89
2024-03-05T07:34:01.305Z,45.18
2024-03-05T07:36:29.474Z,44.06
2024-03-05T07:38:58.183Z,45.31
2024-03-05T07:41:33.082Z,46.62
2024-03-05T07:44:04.739Z,45.47
2024-03-05T07:46:34.891Z,42.19
2024-03-05T07:49:03.829Z,43.21
2024-03-05T07:51:41.009Z,43.23
2024-03-05T07:54:14.230Z,42.44
2024-03-05T07:56:42.827Z,43.32
2024-03-05T07:59:11.850Z,42.14
2024-03-05T08:01:40.145Z,42.42
2024-03-05T08:04:08.549Z,42.53
2024-03-05T08:06:36.774Z,41.87
2024-03-05T08:09:05.233Z,41.78
2024-03-05T08:11:35.287Z,41.74
2024-03-05T08:14:05.192Z,41.02
2024-03-05T08:16:35.429Z,40.26
2024-03-05T08:19:05.376Z,40.15
2024-03-05T08:21:36.041Z,40.22
2024-03-05T08:24:04.891Z,41.21
2024-03-05T08:26:33.111Z,41.26
2024-03-05T08:29:01.510Z,41.29
2024-03-05T08:31:30.115Z,40.01
2024-03-05T08:33:58.533Z,40.47
2024-03-05T08:36:26.968Z,40.46
2024-03-05T08:38:55.130Z,40.25
2024-03-05T08:41:23.077Z,39.57
2024-03-05T08:43:51.337Z,39.49
2024-03-05T08:46:20.826Z,40.07
2024-03-05T08:48:48.956Z,39.37
2024-03-05T08:51:17.204Z,39.55
2024-03-05T08:53:45.336Z,38.85
2024-03-05T08:56:14.643Z,38.96
2024-03-05T08:58:44.255Z,39.51
2024-03-05T09:01:14.388Z,39.46
2024-03-05T09:03:42.925Z,38.13
2024-03-05T09:06:11.037Z,38.95
2024-03-05T09:08:41.895Z,38.96
2024-03-05T09:11:10.335Z,38.36
2024-03-05T09:13:45.022Z,38.29
2024-03-05T09:16:16.439Z,37.71
2024-03-05T09:18:44.594Z,36.39
2024-03-05T09:21:13.375Z,36.22
2024-03-05T09:23:41.712Z,36.80
2024-03-05T09:26:09.921Z,37.03
2024-03-05T09:28:38.384Z,36.25
2024-03-05T09:31:06.741Z,36.78
2024-03-05T09:33:35.077Z,36.14
2024-03-05T09:36:06.162Z,35.99
2024-03-05T09:38:35.225Z,35.59
2024-03-05T09:41:06.039Z,36.40
2024-03-05T09:43:34.692Z,35.56
2024-03-05T09:46:06.515Z,34.11
2024-03-05T09:48:35.055Z,34.37
2024-03-05T09:51:03.212Z,34.81
2024-03-05T09:53:31.189Z,34.03
2024-03-05T09:55:59.317Z,32.19
2024-03-05T09:58:34.316Z,29.84
2024-03-05T10:01:07.323Z,27.88
2024-03-05T10:03:36.554Z,29.02
2024-03-05T10:06:06.280Z,26.76
2024-03-05T10:08:34.685Z,26.48
2024-03-05T10:11:04.422Z,26.26
2024-03-05T10:13:36.624Z,25.95
2024-03-05T10:16:23.844Z,24.54
2024-03-05T10:18:52.138Z,23.95
2024-03-05T10:21:22.779Z,23.18
2024-03-05T10:24:01.880Z,22.41
2024-03-05T10:26:31.456Z,21.09
2024-03-05T10:29:02.042Z,20.57
2024-03-05T10:31:30.148Z,21.24
2024-03-05T10:33:59.337Z,20.00
2024-03-05T10:36:31.583Z,18.99
2024-03-05T10:38:59.968Z,17.94
2024-03-05T10:41:43.445Z,19.36
2024-03-05T10:44:18.792Z,18.84
2024-03-05T10:46:48.399Z,17.89
2024-03-05T10:49:18.361Z,17.85
2024-03-05T10:51:46.388Z,17.54
2024-03-05T10:54:14.536Z,17.06
2024-03-05T10:56:44.809Z,17.33
2024-03-05T10:59:19.278Z,17.57
2024-03-05T11:01:47.543Z,17.51
2024-03-05T11:04:19.909Z,16.67
2024-03-05T11:06:48.592Z,16.46
2024-03-05T11:09:23.156Z,15.54
2024-03-05T11:11:58.446Z,16.62
2024-03-05T11:14:26.596Z,16.51
2024-03-05T11:16:58.945Z,16.91
2024-03-05T11:19:30.144Z,16.74
2024-03-05T11:22:00.005Z,16.79
2024-03-05T11:24:28.356Z,16.33
2024-03-05T11:27:03.335Z,16.65
2024-03-05T11:29:31.407Z,15.94
2024-03-05T11:31:59.878Z,16.19
2024-03-05T11:34:29.198Z,16.89
2024-03-05T11:37:12.333Z,16.66
2024-03-05T11:39:45.628Z,17.26
2024-03-05T11:42:20.738Z,17.15
2024-03-05T11:44:52.685Z,16.01
2024-03-05T11:47:22.362Z,16.12
2024-03-05T11:49:51.031Z,16.06
2024-03-05T11:52:23.429Z,16.06
2024-03-05T11:54:59.546Z,15.98
2024-03-05T11:57:28.878Z,16.44
2024-03-05T11:59:57.024Z,16.56
2024-03-05T12:02:25.383Z,16.30
2024-03-05T12:04:54.773Z,16.26
2024-03-05T12:07:23.889Z,15.81
2024-03-05T12:09:57.132Z,15.69
2024-03-05T12:12:26.074Z,15.38
2024-03-05T12:14:55.375Z,15.41
2024-03-05T12:17:24.394Z,15.84
2024-03-05T12:20:09.765Z,15.49
2024-03-05T12:22:41.669Z,15.44
2024-03-05T12:25:11.496Z,15.54
2024-03-05T12:27:39.849Z,15.72
2024-03-05T12:30:08.771Z,16.22
2024-03-05T12:32:38.034Z,15.82
2024-03-05T12:35:07.237Z,15.60
2024-03-05T12:37:37.243Z,15.92
2024-03-05T12:40:08.542Z,16.59
2024-03-05T12:42:36.972Z,16.74
2024-03-05T12:45:11.006Z,16.24
2024-03-05T12:47:39.823Z,15.56
2024-03-05T12:50:09.211Z,15.46
2024-03-05T12:52:37.945Z,15.66
2024-03-05T12:55:08.532Z,15.65
2024-03-05T12:57:36.891Z,15.75
2024-03-05T13:00:14.142Z,15.79
2024-03-05T13:02:43.282Z,15.73
2024-03-05T13:05:11.780Z,15.67
2024-03-05T13:07:40.267Z,15.92
2024-03-05T13:10:12.155Z,16.60
2024-03-05T13:12:43.108Z,16.93
2024-03-05T13:15:12.206Z,16.65
2024-03-05T13:17:40.338Z,16.44
2024-03-05T13:20:19.966Z,16.54
2024-03-05T13:22:55.385Z,16.72
2024-03-05T13:25:26.175Z,16.16
2024-03-05T13:27:54.260Z,16.03
2024-03-05T13:30:22.676Z,15.63
2024-03-05T13:32:51.642Z,15.38
2024-03-05T13:35:20.142Z,15.69
2024-03-05T13:37:48.894Z,15.82
2024-03-05T13:40:20.371Z,14.94
2024-03-05T13:42:49.438Z,15.12
2024-03-05T13:45:19.387Z,15.27
2024-03-05T13:47:47.828Z,14.99
2024-03-05T13:50:17.786Z,14.96
2024-03-05T13:52:49.408Z,15.25
2024-03-05T13:55:18.060Z,15.10
2024-03-05T13:57:48.786Z,15.04
2024-03-05T14:00:22.125Z,15.28
2024-03-05T14:02:50.444Z,15.59
2024-03-05T14:05:19.192Z,15.24
2024-03-05T14:07:48.579Z,15.44
2024-03-05T14:10:17.180Z,15.34
2024-03-05T14:12:50.666Z,15.09
2024-03-05T14:15:23.061Z,15.50
2024-03-05T14:17:52.201Z,15.35
2024-03-05T14:20:25.986Z,15.08
2024-03-05T14:22:55.332Z,15.48
2024-03-05T14:25:24.072Z,15.67
2024-03-05T14:27:52.611Z,16.09
2024-03-05T14:30:21.129Z,16.55
2024-03-05T14:32:49.729Z,16.94
2024-03-05T14:35:19.265Z,17.32
2024-03-05T14:37:47.836Z,17.83
2024-03-05T14:40:16.704Z,18.25
2024-03-05T14:42:45.719Z,18.75
2024-03-05T14:45:17.528Z,19.40
2024-03-05T14:47:47.689Z,19.91
2024-03-05T14:50:16.127Z,20.16
2024-03-05T14:52:44.394Z,20.40
2024-03-05T14:55:14.247Z,20.27
2024-03-05T14:57:48.057Z,20.24
2024-03-05T15:00:17.269Z,20.13
2024-03-05T15:02:48.808Z,19.89
2024-03-05T15:05:18.046Z,19.65
2024-03-05T15:07:46.308Z,19.63
2024-03-05T15:10:16.151Z,20.03
2024-03-05T15:12:49.399Z,20.34
2024-03-05T15:15:18.081Z,20.68
2024-03-05T15:17:46.970Z,21.17
2024-03-05T15:20:17.269Z,21.44
2024-03-05T15:22:46.068Z,22.22
2024-03-05T15:25:14.844Z,22.47
2024-03-05T15:27:45.759Z,22.67
2024-03-05T15:30:17.168Z,23.23
2024-03-05T15:32:51.688Z,23.82
2024-03-05T15:35:21.271Z,23.80
2024-03-05T15:37:50.344Z,24.08
2024-03-05T15:40:20.905Z,24.38
2024-03-05T15:42:50.913Z,25.08
2024-03-05T15:45:23.948Z,24.93
2024-03-05T15:47:54.145Z,25.09
2024-03-05T15:50:23.949Z,25.45
2024-03-05T15:52:53.479Z,25.61
2024-03-05T15:55:25.175Z,26.04
2024-03-05T15:58:02.808Z,26.91
2024-03-05T16:00:37.759Z,28.11
2024-03-05T16:03:11.339Z,29.58
2024-03-05T16:05:51.856Z,30.39
2024-03-05T16:08:29.658Z,31.62
2024-03-05T16:11:00.127Z,31.27
2024-03-05T16:13:30.660Z,32.11
2024-03-05T16:15:59.151Z,31.61
2024-03-05T16:18:27.793Z,32.64
2024-03-05T16:21:01.326Z,32.73
2024-03-05T16:23:29.597Z,32.86
2024-03-05T16:25:58.341Z,33.57
2024-03-05T16:28:26.498Z,34.07
2024-03-05T16:30:54.561Z,34.09
2024-03-05T16:33:23.054Z,34.08
2024-03-05T16:35:53.392Z,33.91
2024-03-05T16:38:21.636Z,34.81
2024-03-05T16:40:50.265Z,33.98
2024-03-05T16:43:18.616Z,34.39
2024-03-05T16:45:48.028Z,34.75
2024-03-05T16:48:16.328Z,34.61
2024-03-05T16:50:45.188Z,35.05
2024-03-05T16:53:13.490Z,34.94
2024-03-05T16:55:43.062Z,35.78
2024-03-05T16:58:15.049Z,35.19
2024-03-05T17:00:56.536Z,35.01
2024-03-05T17:03:29.865Z,35.49
2024-03-05T17:05:58.598Z,35.15
2024-03-05T17:08:28.090Z,35.22
2024-03-05T17:10:56.323Z,35.45
2024-03-05T17:13:27.795Z,35.83
2024-03-05T17:16:00.285Z,35.91
2024-03-05T17:18:32.002Z,36.19
2024-03-05T17:21:00.997Z,36.75
2024-03-05T17:23:30.763Z,38.85
2024-03-05T17:26:00.078Z,40.08
2024-03-05T17:28:28.820Z,40.69
2024-03-05T17:31:00.348Z,41.81
2024-03-05T17:33:29.189Z,42.11
2024-03-05T17:35:58.517Z,43.02
2024-03-05T17:38:30.339Z,43.45
2024-03-05T17:41:02.016Z,44.24
2024-03-05T17:43:31.517Z,44.38
2024-03-05T17:46:00.420Z,44.97
2024-03-05T17:48:29.166Z,44.58
2024-03-05T17:50:58.283Z,44.99
2024-03-05T17:53:26.750Z,45.49
2024-03-05T17:55:55.422Z,45.57
2024-03-05T17:58:24.390Z,45.87
2024-03-05T18:00:52.858Z,46.19
2024-03-05T18:03:24.454Z,46.17
2024-03-05T18:05:54.133Z,46.59
2024-03-05T18:08:22.899Z,46.70
2024-03-05T18:10:51.508Z,46.86
2024-03-05T18:13:22.024Z,46.68
2024-03-05T18:15:52.245Z,47.16
2024-03-05T18:18:21.060Z,46.78
2024-03-05T18:20:50.165Z,46.66
2024-03-05T18:23:18.682Z,46.78
2024-03-05T18:25:49.144Z,46.61
2024-03-05T18:28:21.854Z,46.45
2024-03-05T18:30:51.626Z,46.63
2024-03-05T18:33:20.130Z,46.47
2024-03-05T18:35:48.695Z,46.10
2024-03-05T18:38:24.798Z,46.24
2024-03-05T18:41:00.242Z,46.48
2024-03-05T18:43:29.927Z,46.64
2024-03-05T18:46:00.949Z,46.67
2024-03-05T18:48:29.248Z,47.61
2024-03-05T18:50:58.111Z,47.96
2024-03-05T18:53:35.938Z,48.52
2024-03-05T18:56:13.030Z,48.71
2024-03-05T18:58:42.588Z,48.72
2024-03-05T19:01:11.622Z,49.10
2024-03-05T19:03:40.367Z,49.64
2024-03-05T19:06:08.833Z,49.42
2024-03-05T19:08:39.351Z,49.66
2024-03-05T19:11:10.069Z,49.91
2024-03-05T19:13:39.262Z,49.96
2024-03-05T19:16:08.100Z,49.78
2024-03-05T19:18:36.715Z,49.15
2024-03-05T19:21:06.346Z,49.67
2024-03-05T19:23:34.975Z,49.66
2024-03-05T19:26:03.787Z,48.92
2024-03-05T19:28:35.579Z,49.68
2024-03-05T19:31:05.798Z,49.39
2024-03-05T19:33:35.077Z,48.92
2024-03-05T19:36:04.774Z,48.93
2024-03-05T19:38:33.052Z,48.95
2024-03-05T19:41:03.276Z,48.98
2024-03-05T19:43:36.050Z,49.36
2024-03-05T19:46:05.499Z,49.70
2024-03-05T19:48:34.293Z,50.45
2024-03-05T19:51:02.635Z,50.63
2024-03-05T19:53:30.796Z,51.01
2024-03-05T19:55:59.115Z,51.17
2024-03-05T19:58:27.320Z,51.49
2024-03-05T20:00:55.608Z,51.70
2024-03-05T20:03:23.817Z,51.81
2024-03-05T20:05:52.635Z,51.47
2024-03-05T20:08:20.722Z,51.90
2024-03-05T20:10:49.291Z,52.24
2024-03-05T20:13:17.857Z,51.92
2024-03-05T20:15:46.158Z,52.04
2024-03-05T20:18:14.373Z,52.28
2024-03-05T20:20:42.904Z,52.10
2024-03-05T20:23:11.215Z,52.40
2024-03-05T20:25:39.385Z,52.32
2024-03-05T20:28:11.390Z,52.42
2024-03-05T20:30:41.061Z,52.37
2024-03-05T20:33:13.349Z,52.50
2024-03-05T20:35:44.287Z,52.45
2024-03-05T20:38:12.516Z,52.24
2024-03-05T20:40:40.839Z,52.33
2024-03-05T20:43:11.905Z,52.10
2024-03-05T20:45:40.162Z,52.20
2024-03-05T20:48:08.521Z,52.21
2024-03-05T20:50:36.965Z,52.34
2024-03-05T20:53:05.912Z,52.28
2024-03-05T20:55:34.480Z,52.34
2024-03-05T20:58:05.370Z,52.35
2024-03-05T21:00:33.656Z,52.27
2024-03-05T21:03:01.943Z,52.56
2024-03-05T21:05:31.482Z,52.27
2024-03-05T21:07:59.506Z,52.15
2024-03-05T21:10:28.368Z,52.19
2024-03-05T21:12:56.785Z,51.99
2024-03-05T21:15:26.174Z,51.92
2024-03-05T21:17:54.325Z,52.17
2024-03-05T21:20:23.708Z,51.92
2024-03-05T21:22:52.115Z,51.98
2024-03-05T21:25:23.210Z,51.76
2024-03-05T21:27:51.315Z,51.57
2024-03-05T21:30:19.364Z,51.76
2024-03-05T21:32:47.420Z,51.52
2024-03-05T21:35:15.936Z,51.48
2024-03-05T21:37:45.123Z,51.30
2024-03-05T21:40:14.302Z,51.43
2024-03-05T21:42:45.021Z,51.45
2024-03-05T21:45:15.281Z,51.20
2024-03-05T21:47:45.004Z,51.29
2024-03-05T21:50:13.515Z,51.44
2024-03-05T21:52:46.155Z,51.26
2024-03-05T21:55:16.372Z,51.38
2024-03-05T21:57:44.755Z,51.11
2024-03-05T22:00:13.406Z,51.08
2024-03-05T22:02:42.414Z,50.65
2024-03-05T22:05:12.285Z,50.56
2024-03-05T22:07:40.842Z,50.54
2024-03-05T22:10:09.782Z,50.76
2024-03-05T22:12:41.837Z,51.28
2024-03-05T22:15:10.890Z,51.69
2024-03-05T22:17:39.080Z,52.44
2024-03-05T22:20:09.318Z,52.99
2024-03-05T22:22:38.238Z,53.60
2024-03-05T22:25:07.941Z,53.68
2024-03-05T22:27:36.478Z,54.08
2024-03-05T22:30:09.044Z,54.67
2024-03-05T22:32:37.617Z,54.46
2024-03-05T22:35:10.818Z,54.72
2024-03-05T22:37:40.442Z,54.93
2024-03-05T22:40:11.448Z,55.09
2024-03-05T22:42:40.046Z,55.39
2024-03-05T22:45:10.357Z,55.48
2024-03-05T22:47:38.588Z,55.71
2024-03-05T22:50:10.616Z,55.67
2024-03-05T22:52:39.661Z,55.49
2024-03-05T22:55:08.918Z,55.60
2024-03-05T22:57:37.349Z,55.46
2024-03-05T23:00:24.464Z,55.28
2024-03-05T23:02:52.882Z,55.39
2024-03-05T23:05:21.421Z,55.17
2024-03-05T23:07:49.771Z,55.39
2024-03-05T23:10:18.092Z,55.62
2024-03-05T23:12:46.061Z,55.14
2024-03-05T23:15:16.489Z,55.18
2024-03-05T23:17:45.058Z,54.99
2024-03-05T23:20:13.331Z,54.81
2024-03-05T23:22:41.350Z,54.90
2024-03-05T23:25:13.441Z,54.94
2024-03-05T23:27:43.174Z,55.05
2024-03-05T23:30:11.947Z,55.03
2024-03-05T23:32:40.198Z,55.20
2024-03-05T23:35:08.790Z,55.39
2024-03-05T23:37:37.182Z,55.61
2024-03-05T23:40:08.356Z,55.61
2024-03-05T23:42:36.767Z,55.63
2024-03-05T23:45:05.353Z,55.96
2024-03-05T23:47:33.852Z,55.93
2024-03-05T23:50:02.116Z,55.70
2024-03-05T23:52:30.388Z,55.81
2024-03-05T23:55:01.345Z,55.92
2024-03-05T23:57:31.101Z,55.78
2024-03-05T23:59:59.187Z,55.84
